Terminal Aerodrome Forecast
Issued by NWS Grand Forks, ND

Home | Current Version | Previous Version | Text Only | Print | Product List | Glossary On
Versions: 1 2 3 4 5 6 7 8 9 10 11 12 13 14 15 16 17 18 19 20
000
FTUS43 KFGF 020500
TAFFAR
TAF
KFAR 020520Z 0206/0306 24007KT P6SM SCT060
     FM021700 23010KT P6SM BKN040
     FM030100 27015G25KT P6SM VCSH BKN050
     FM030300 31025G35KT P6SM BKN050=

USA.gov is the U.S. government's official web portal to all federal, state and local government web resources and services.